sensor_id;sensor_type;location;lat;lon;timestamp;temperature;humidity
19174;DHT22;9719;49.322;8.536;2023-05-29T00:04:51;19.30;73.30
19174;DHT22;9719;49.322;8.536;2023-05-29T00:09:53;19.20;73.70
19174;DHT22;9719;49.322;8.536;2023-05-29T00:14:54;19.10;73.90
19174;DHT22;9719;49.322;8.536;2023-05-29T00:19:57;18.90;74.70
19174;DHT22;9719;49.322;8.536;2023-05-29T00:24:59;18.70;76.00
19174;DHT22;9719;49.322;8.536;2023-05-29T00:30:02;18.50;75.80
19174;DHT22;9719;49.322;8.536;2023-05-29T00:35:07;18.30;76.30
19174;DHT22;9719;49.322;8.536;2023-05-29T00:40:10;18.10;77.10
19174;DHT22;9719;49.322;8.536;2023-05-29T00:45:12;17.90;78.00
19174;DHT22;9719;49.322;8.536;2023-05-29T00:50:15;17.70;78.70
19174;DHT22;9719;49.322;8.536;2023-05-29T00:55:18;17.60;79.70
19174;DHT22;9719;49.322;8.536;2023-05-29T01:00:20;17.40;80.90
19174;DHT22;9719;49.322;8.536;2023-05-29T01:05:24;17.30;81.30
19174;DHT22;9719;49.322;8.536;2023-05-29T01:10:26;17.10;82.50
19174;DHT22;9719;49.322;8.536;2023-05-29T01:15:34;17.00;82.90
19174;DHT22;9719;49.322;8.536;2023-05-29T01:20:42;16.90;83.90
19174;DHT22;9719;49.322;8.536;2023-05-29T01:25:56;16.80;84.50
19174;DHT22;9719;49.322;8.536;2023-05-29T01:31:00;16.70;85.20
19174;DHT22;9719;49.322;8.536;2023-05-29T01:36:02;16.60;85.50
19174;DHT22;9719;49.322;8.536;2023-05-29T01:41:04;16.40;86.60
19174;DHT22;9719;49.322;8.536;2023-05-29T01:46:07;16.30;88.30
19174;DHT22;9719;49.322;8.536;2023-05-29T01:51:10;16.30;89.30
19174;DHT22;9719;49.322;8.536;2023-05-29T01:56:12;16.30;90.10
19174;DHT22;9719;49.322;8.536;2023-05-29T02:01:15;16.30;90.50
19174;DHT22;9719;49.322;8.536;2023-05-29T02:06:17;16.20;90.70
19174;DHT22;9719;49.322;8.536;2023-05-29T02:11:19;16.20;90.90
19174;DHT22;9719;49.322;8.536;2023-05-29T02:16:22;16.20;91.40
19174;DHT22;9719;49.322;8.536;2023-05-29T02:21:23;16.10;91.80
19174;DHT22;9719;49.322;8.536;2023-05-29T02:26:25;16.10;92.10
19174;DHT22;9719;49.322;8.536;2023-05-29T02:31:28;16.00;92.30
19174;DHT22;9719;49.322;8.536;2023-05-29T02:36:30;15.90;92.30
19174;DHT22;9719;49.322;8.536;2023-05-29T02:41:31;15.80;92.80
19174;DHT22;9719;49.322;8.536;2023-05-29T02:46:34;15.70;92.80
19174;DHT22;9719;49.322;8.536;2023-05-29T02:51:36;15.60;93.60
19174;DHT22;9719;49.322;8.536;2023-05-29T02:56:38;15.50;94.10
19174;DHT22;9719;49.322;8.536;2023-05-29T03:01:41;15.40;94.10
19174;DHT22;9719;49.322;8.536;2023-05-29T03:06:43;15.40;95.00
19174;DHT22;9719;49.322;8.536;2023-05-29T03:11:45;15.30;95.00
19174;DHT22;9719;49.322;8.536;2023-05-29T03:16:51;15.20;95.30
19174;DHT22;9719;49.322;8.536;2023-05-29T03:21:53;15.10;95.90
19174;DHT22;9719;49.322;8.536;2023-05-29T03:26:55;15.00;96.20
19174;DHT22;9719;49.322;8.536;2023-05-29T03:31:58;15.00;96.90
19174;DHT22;9719;49.322;8.536;2023-05-29T03:37:00;15.00;96.90
19174;DHT22;9719;49.322;8.536;2023-05-29T03:42:02;14.90;97.20
19174;DHT22;9719;49.322;8.536;2023-05-29T03:47:05;14.80;97.90
19174;DHT22;9719;49.322;8.536;2023-05-29T03:52:09;14.70;98.10
19174;DHT22;9719;49.322;8.536;2023-05-29T03:57:10;14.70;98.70
19174;DHT22;9719;49.322;8.536;2023-05-29T04:02:13;14.70;99.10
19174;DHT22;9719;49.322;8.536;2023-05-29T04:07:15;14.70;99.50
19174;DHT22;9719;49.322;8.536;2023-05-29T04:12:18;14.80;99.50
19174;DHT22;9719;49.322;8.536;2023-05-29T04:17:21;14.80;99.90
19174;DHT22;9719;49.322;8.536;2023-05-29T04:22:22;15.00;99.90
19174;DHT22;9719;49.322;8.536;2023-05-29T04:27:24;15.10;99.90
19174;DHT22;9719;49.322;8.536;2023-05-29T04:32:27;15.20;99.90
19174;DHT22;9719;49.322;8.536;2023-05-29T04:37:29;15.20;99.90
19174;DHT22;9719;49.322;8.536;2023-05-29T04:42:31;15.40;99.90
19174;DHT22;9719;49.322;8.536;2023-05-29T04:47:35;15.50;99.90
19174;DHT22;9719;49.322;8.536;2023-05-29T04:52:44;15.70;99.90
19174;DHT22;9719;49.322;8.536;2023-05-29T04:57:45;15.90;99.90
19174;DHT22;9719;49.322;8.536;2023-05-29T05:02:49;16.00;99.90
19174;DHT22;9719;49.322;8.536;2023-05-29T05:07:51;16.30;99.90
19174;DHT22;9719;49.322;8.536;2023-05-29T05:12:52;16.50;99.90
19174;DHT22;9719;49.322;8.536;2023-05-29T05:17:55;16.80;99.90
19174;DHT22;9719;49.322;8.536;2023-05-29T05:22:57;17.10;99.90
19174;DHT22;9719;49.322;8.536;2023-05-29T05:28:00;17.50;99.90
19174;DHT22;9719;49.322;8.536;2023-05-29T05:33:04;17.90;98.50
19174;DHT22;9719;49.322;8.536;2023-05-29T05:38:06;18.20;97.60
19174;DHT22;9719;49.322;8.536;2023-05-29T05:43:08;18.60;96.80
19174;DHT22;9719;49.322;8.536;2023-05-29T05:48:11;18.90;94.80
19174;DHT22;9719;49.322;8.536;2023-05-29T05:53:13;19.20;92.90
19174;DHT22;9719;49.322;8.536;2023-05-29T05:58:15;19.50;92.50
19174;DHT22;9719;49.322;8.536;2023-05-29T06:03:18;19.80;91.30
19174;DHT22;9719;49.322;8.536;2023-05-29T06:08:19;20.00;90.60
19174;DHT22;9719;49.322;8.536;2023-05-29T06:13:21;20.30;89.10
19174;DHT22;9719;49.322;8.536;2023-05-29T06:18:24;20.60;88.60
19174;DHT22;9719;49.322;8.536;2023-05-29T06:23:26;20.90;87.80
19174;DHT22;9719;49.322;8.536;2023-05-29T06:28:28;21.30;87.30
19174;DHT22;9719;49.322;8.536;2023-05-29T06:33:31;21.50;86.10
19174;DHT22;9719;49.322;8.536;2023-05-29T06:38:32;21.80;85.40
19174;DHT22;9719;49.322;8.536;2023-05-29T06:43:34;22.10;83.90
19174;DHT22;9719;49.322;8.536;2023-05-29T06:48:37;22.40;83.50
19174;DHT22;9719;49.322;8.536;2023-05-29T06:53:39;22.60;82.00
19174;DHT22;9719;49.322;8.536;2023-05-29T06:58:40;22.80;81.00
19174;DHT22;9719;49.322;8.536;2023-05-29T07:03:43;23.00;79.80
19174;DHT22;9719;49.322;8.536;2023-05-29T07:08:45;23.20;78.60
19174;DHT22;9719;49.322;8.536;2023-05-29T07:13:47;23.30;76.90
19174;DHT22;9719;49.322;8.536;2023-05-29T07:18:50;23.40;77.20
19174;DHT22;9719;49.322;8.536;2023-05-29T07:23:52;23.50;76.70
19174;DHT22;9719;49.322;8.536;2023-05-29T07:28:53;23.60;74.70
19174;DHT22;9719;49.322;8.536;2023-05-29T07:33:56;23.70;74.50
19174;DHT22;9719;49.322;8.536;2023-05-29T07:38:58;23.80;75.00
19174;DHT22;9719;49.322;8.536;2023-05-29T07:44:01;24.00;74.50
19174;DHT22;9719;49.322;8.536;2023-05-29T07:49:03;24.10;72.80
19174;DHT22;9719;49.322;8.536;2023-05-29T07:54:05;24.20;73.80
19174;DHT22;9719;49.322;8.536;2023-05-29T07:59:07;24.50;73.20
19174;DHT22;9719;49.322;8.536;2023-05-29T08:04:11;24.20;69.10
19174;DHT22;9719;49.322;8.536;2023-05-29T08:09:12;24.30;69.30
19174;DHT22;9719;49.322;8.536;2023-05-29T08:14:15;24.40;70.90
19174;DHT22;9719;49.322;8.536;2023-05-29T08:19:18;24.60;70.60
19174;DHT22;9719;49.322;8.536;2023-05-29T08:24:19;24.90;71.30
19174;DHT22;9719;49.322;8.536;2023-05-29T08:29:21;25.10;71.20
19174;DHT22;9719;49.322;8.536;2023-05-29T08:34:24;25.30;69.00
19174;DHT22;9719;49.322;8.536;2023-05-29T08:39:26;25.50;67.40
19174;DHT22;9719;49.322;8.536;2023-05-29T08:44:30;25.70;66.50
19174;DHT22;9719;49.322;8.536;2023-05-29T08:49:40;26.00;65.20
19174;DHT22;9719;49.322;8.536;2023-05-29T08:54:42;26.20;64.00
19174;DHT22;9719;49.322;8.536;2023-05-29T08:59:44;26.40;63.60
19174;DHT22;9719;49.322;8.536;2023-05-29T09:04:48;26.60;63.00
19174;DHT22;9719;49.322;8.536;2023-05-29T09:09:50;26.60;62.50
19174;DHT22;9719;49.322;8.536;2023-05-29T09:14:51;26.80;61.50
19174;DHT22;9719;49.322;8.536;2023-05-29T09:19:54;27.00;61.30
19174;DHT22;9719;49.322;8.536;2023-05-29T09:24:58;27.10;60.70
19174;DHT22;9719;49.322;8.536;2023-05-29T09:30:00;27.30;61.10
19174;DHT22;9719;49.322;8.536;2023-05-29T09:35:03;27.50;59.40
19174;DHT22;9719;49.322;8.536;2023-05-29T09:40:07;27.60;59.10
19174;DHT22;9719;49.322;8.536;2023-05-29T09:45:10;27.80;59.00
19174;DHT22;9719;49.322;8.536;2023-05-29T09:50:19;28.00;58.90
19174;DHT22;9719;49.322;8.536;2023-05-29T09:55:22;28.20;56.90
19174;DHT22;9719;49.322;8.536;2023-05-29T10:00:26;28.40;57.30
19174;DHT22;9719;49.322;8.536;2023-05-29T10:05:29;28.60;56.40
19174;DHT22;9719;49.322;8.536;2023-05-29T10:10:32;28.80;56.00
19174;DHT22;9719;49.322;8.536;2023-05-29T10:15:36;29.00;56.70
19174;DHT22;9719;49.322;8.536;2023-05-29T10:20:41;29.20;55.70
19174;DHT22;9719;49.322;8.536;2023-05-29T10:25:46;29.20;54.50
19174;DHT22;9719;49.322;8.536;2023-05-29T10:30:54;29.40;54.30
19174;DHT22;9719;49.322;8.536;2023-05-29T10:36:07;29.50;54.90
19174;DHT22;9719;49.322;8.536;2023-05-29T10:41:30;29.60;52.80
19174;DHT22;9719;49.322;8.536;2023-05-29T10:47:01;29.70;53.10
19174;DHT22;9719;49.322;8.536;2023-05-29T10:52:05;29.80;52.50
19174;DHT22;9719;49.322;8.536;2023-05-29T10:57:10;29.60;53.40
19174;DHT22;9719;49.322;8.536;2023-05-29T11:02:17;29.50;52.70
19174;DHT22;9719;49.322;8.536;2023-05-29T11:07:34;29.70;53.40
19174;DHT22;9719;49.322;8.536;2023-05-29T11:12:55;29.70;51.70
19174;DHT22;9719;49.322;8.536;2023-05-29T11:18:05;29.20;53.00
19174;DHT22;9719;49.322;8.536;2023-05-29T11:23:14;28.80;52.00
19174;DHT22;9719;49.322;8.536;2023-05-29T11:28:17;28.40;51.80
19174;DHT22;9719;49.322;8.536;2023-05-29T11:33:23;28.10;52.00
19174;DHT22;9719;49.322;8.536;2023-05-29T11:38:27;28.40;52.60
19174;DHT22;9719;49.322;8.536;2023-05-29T11:43:29;29.00;52.30
19174;DHT22;9719;49.322;8.536;2023-05-29T11:48:31;29.50;52.10
19174;DHT22;9719;49.322;8.536;2023-05-29T11:53:34;29.90;51.10
19174;DHT22;9719;49.322;8.536;2023-05-29T11:58:36;29.90;50.10
19174;DHT22;9719;49.322;8.536;2023-05-29T12:03:39;30.10;49.80
19174;DHT22;9719;49.322;8.536;2023-05-29T12:08:42;30.30;50.60
19174;DHT22;9719;49.322;8.536;2023-05-29T12:13:44;30.40;49.00
19174;DHT22;9719;49.322;8.536;2023-05-29T12:18:56;30.50;48.20
19174;DHT22;9719;49.322;8.536;2023-05-29T12:23:59;30.60;48.00
19174;DHT22;9719;49.322;8.536;2023-05-29T12:29:02;30.50;47.50
19174;DHT22;9719;49.322;8.536;2023-05-29T12:34:08;30.50;47.50
19174;DHT22;9719;49.322;8.536;2023-05-29T12:39:13;30.60;47.40
19174;DHT22;9719;49.322;8.536;2023-05-29T12:44:15;30.50;46.40
19174;DHT22;9719;49.322;8.536;2023-05-29T12:49:20;30.30;46.20
19174;DHT22;9719;49.322;8.536;2023-05-29T12:54:25;30.20;46.40
19174;DHT22;9719;49.322;8.536;2023-05-29T12:59:26;30.20;46.80
19174;DHT22;9719;49.322;8.536;2023-05-29T13:04:28;30.10;46.40
19174;DHT22;9719;49.322;8.536;2023-05-29T13:09:31;30.00;46.50
19174;DHT22;9719;49.322;8.536;2023-05-29T13:14:33;30.20;47.40
19174;DHT22;9719;49.322;8.536;2023-05-29T13:19:35;30.50;46.60
19174;DHT22;9719;49.322;8.536;2023-05-29T13:24:38;30.70;47.10
19174;DHT22;9719;49.322;8.536;2023-05-29T13:29:40;30.80;47.70
19174;DHT22;9719;49.322;8.536;2023-05-29T13:34:42;30.40;45.70
19174;DHT22;9719;49.322;8.536;2023-05-29T13:39:45;30.30;45.80
19174;DHT22;9719;49.322;8.536;2023-05-29T13:44:47;30.20;45.80
19174;DHT22;9719;49.322;8.536;2023-05-29T13:49:49;30.20;46.40
19174;DHT22;9719;49.322;8.536;2023-05-29T13:54:52;30.40;46.10
19174;DHT22;9719;49.322;8.536;2023-05-29T13:59:54;30.60;45.90
19174;DHT22;9719;49.322;8.536;2023-05-29T14:04:56;30.90;46.00
19174;DHT22;9719;49.322;8.536;2023-05-29T14:09:59;31.10;45.30
19174;DHT22;9719;49.322;8.536;2023-05-29T14:15:00;31.50;45.10
19174;DHT22;9719;49.322;8.536;2023-05-29T14:20:03;32.40;44.40
19174;DHT22;9719;49.322;8.536;2023-05-29T14:25:10;32.50;43.60
19174;DHT22;9719;49.322;8.536;2023-05-29T14:30:12;32.10;43.40
19174;DHT22;9719;49.322;8.536;2023-05-29T14:35:14;31.70;44.40
19174;DHT22;9719;49.322;8.536;2023-05-29T14:40:17;31.30;43.70
19174;DHT22;9719;49.322;8.536;2023-05-29T14:45:19;31.10;43.60
19174;DHT22;9719;49.322;8.536;2023-05-29T14:50:21;31.00;44.80
19174;DHT22;9719;49.322;8.536;2023-05-29T14:55:24;30.90;44.80
19174;DHT22;9719;49.322;8.536;2023-05-29T15:00:26;30.90;44.60
19174;DHT22;9719;49.322;8.536;2023-05-29T15:05:28;30.90;44.40
19174;DHT22;9719;49.322;8.536;2023-05-29T15:10:31;30.80;44.00
19174;DHT22;9719;49.322;8.536;2023-05-29T15:15:33;30.60;44.00
19174;DHT22;9719;49.322;8.536;2023-05-29T15:20:34;30.40;43.80
19174;DHT22;9719;49.322;8.536;2023-05-29T15:25:37;30.30;44.00
19174;DHT22;9719;49.322;8.536;2023-05-29T15:30:39;30.30;43.80
19174;DHT22;9719;49.322;8.536;2023-05-29T15:35:41;30.40;44.50
19174;DHT22;9719;49.322;8.536;2023-05-29T15:40:46;30.40;44.00
19174;DHT22;9719;49.322;8.536;2023-05-29T15:45:47;30.40;44.40
19174;DHT22;9719;49.322;8.536;2023-05-29T15:50:49;30.40;44.10
19174;DHT22;9719;49.322;8.536;2023-05-29T15:55:53;30.40;43.80
19174;DHT22;9719;49.322;8.536;2023-05-29T16:00:55;30.40;43.70
19174;DHT22;9719;49.322;8.536;2023-05-29T16:05:57;30.30;43.40
19174;DHT22;9719;49.322;8.536;2023-05-29T16:11:00;30.40;43.50
19174;DHT22;9719;49.322;8.536;2023-05-29T16:16:04;30.40;43.50
19174;DHT22;9719;49.322;8.536;2023-05-29T16:21:05;30.40;43.70
19174;DHT22;9719;49.322;8.536;2023-05-29T16:26:08;30.20;43.80
19174;DHT22;9719;49.322;8.536;2023-05-29T16:31:10;29.90;44.00
19174;DHT22;9719;49.322;8.536;2023-05-29T16:36:12;29.80;44.50
19174;DHT22;9719;49.322;8.536;2023-05-29T16:41:15;29.70;44.30
19174;DHT22;9719;49.322;8.536;2023-05-29T16:46:16;29.50;44.90
19174;DHT22;9719;49.322;8.536;2023-05-29T16:51:18;29.40;44.40
19174;DHT22;9719;49.322;8.536;2023-05-29T16:56:22;29.40;44.80
19174;DHT22;9719;49.322;8.536;2023-05-29T17:01:24;29.40;45.00
19174;DHT22;9719;49.322;8.536;2023-05-29T17:06:26;29.40;44.90
19174;DHT22;9719;49.322;8.536;2023-05-29T17:11:29;29.30;45.40
19174;DHT22;9719;49.322;8.536;2023-05-29T17:16:30;29.20;47.40
19174;DHT22;9719;49.322;8.536;2023-05-29T17:21:32;28.80;48.40
19174;DHT22;9719;49.322;8.536;2023-05-29T17:26:35;28.20;49.10
19174;DHT22;9719;49.322;8.536;2023-05-29T17:31:37;27.90;50.10
19174;DHT22;9719;49.322;8.536;2023-05-29T17:36:38;27.70;50.70
19174;DHT22;9719;49.322;8.536;2023-05-29T17:41:41;27.60;51.00
19174;DHT22;9719;49.322;8.536;2023-05-29T17:46:43;27.60;51.20
19174;DHT22;9719;49.322;8.536;2023-05-29T17:51:45;27.50;51.70
19174;DHT22;9719;49.322;8.536;2023-05-29T17:56:48;27.30;51.90
19174;DHT22;9719;49.322;8.536;2023-05-29T18:01:50;27.10;52.10
19174;DHT22;9719;49.322;8.536;2023-05-29T18:06:51;26.70;52.60
19174;DHT22;9719;49.322;8.536;2023-05-29T18:11:54;26.40;53.00
19174;DHT22;9719;49.322;8.536;2023-05-29T18:16:56;26.20;53.40
19174;DHT22;9719;49.322;8.536;2023-05-29T18:21:58;25.90;53.80
19174;DHT22;9719;49.322;8.536;2023-05-29T18:27:01;25.80;54.10
19174;DHT22;9719;49.322;8.536;2023-05-29T18:32:04;25.60;54.50
19174;DHT22;9719;49.322;8.536;2023-05-29T18:37:06;25.50;55.00
19174;DHT22;9719;49.322;8.536;2023-05-29T18:42:09;25.30;55.20
19174;DHT22;9719;49.322;8.536;2023-05-29T18:47:11;25.20;55.60
19174;DHT22;9719;49.322;8.536;2023-05-29T18:52:15;25.10;56.00
19174;DHT22;9719;49.322;8.536;2023-05-29T18:57:19;24.90;56.30
19174;DHT22;9719;49.322;8.536;2023-05-29T19:02:20;24.80;56.60
19174;DHT22;9719;49.322;8.536;2023-05-29T19:07:22;24.60;57.10
19174;DHT22;9719;49.322;8.536;2023-05-29T19:12:25;24.60;57.40
19174;DHT22;9719;49.322;8.536;2023-05-29T19:17:27;24.40;57.60
19174;DHT22;9719;49.322;8.536;2023-05-29T19:22:28;24.20;58.00
19174;DHT22;9719;49.322;8.536;2023-05-29T19:27:31;24.10;58.30
19174;DHT22;9719;49.322;8.536;2023-05-29T19:32:33;24.00;58.70
19174;DHT22;9719;49.322;8.536;2023-05-29T19:37:35;23.90;59.00
19174;DHT22;9719;49.322;8.536;2023-05-29T19:42:38;23.70;59.30
19174;DHT22;9719;49.322;8.536;2023-05-29T19:47:40;23.70;59.80
19174;DHT22;9719;49.322;8.536;2023-05-29T19:52:42;23.50;60.50
19174;DHT22;9719;49.322;8.536;2023-05-29T19:57:45;23.30;61.20
19174;DHT22;9719;49.322;8.536;2023-05-29T20:02:48;23.20;62.30
19174;DHT22;9719;49.322;8.536;2023-05-29T20:07:50;23.00;63.30
19174;DHT22;9719;49.322;8.536;2023-05-29T20:12:53;22.80;64.60
19174;DHT22;9719;49.322;8.536;2023-05-29T20:17:54;22.70;65.60
19174;DHT22;9719;49.322;8.536;2023-05-29T20:22:56;22.60;67.30
19174;DHT22;9719;49.322;8.536;2023-05-29T20:27:59;22.50;67.10
19174;DHT22;9719;49.322;8.536;2023-05-29T20:33:01;22.30;68.10
19174;DHT22;9719;49.322;8.536;2023-05-29T20:38:03;22.20;68.90
19174;DHT22;9719;49.322;8.536;2023-05-29T20:43:06;22.10;69.60
19174;DHT22;9719;49.322;8.536;2023-05-29T20:48:09;22.00;70.20
19174;DHT22;9719;49.322;8.536;2023-05-29T20:53:11;21.90;70.90
19174;DHT22;9719;49.322;8.536;2023-05-29T20:58:14;21.80;71.50
19174;DHT22;9719;49.322;8.536;2023-05-29T21:03:16;21.80;72.20
19174;DHT22;9719;49.322;8.536;2023-05-29T21:08:18;21.80;72.70
19174;DHT22;9719;49.322;8.536;2023-05-29T21:13:22;21.70;73.30
19174;DHT22;9719;49.322;8.536;2023-05-29T21:18:24;21.70;73.60
19174;DHT22;9719;49.322;8.536;2023-05-29T21:23:26;21.60;74.00
19174;DHT22;9719;49.322;8.536;2023-05-29T21:28:30;21.60;74.60
19174;DHT22;9719;49.322;8.536;2023-05-29T21:33:32;21.50;75.20
19174;DHT22;9719;49.322;8.536;2023-05-29T21:38:33;21.40;75.70
19174;DHT22;9719;49.322;8.536;2023-05-29T21:43:36;21.30;76.30
19174;DHT22;9719;49.322;8.536;2023-05-29T21:48:38;21.20;77.90
19174;DHT22;9719;49.322;8.536;2023-05-29T21:53:40;21.10;77.50
19174;DHT22;9719;49.322;8.536;2023-05-29T21:58:43;21.00;78.20
19174;DHT22;9719;49.322;8.536;2023-05-29T22:03:45;21.00;78.60
19174;DHT22;9719;49.322;8.536;2023-05-29T22:08:46;20.90;78.90
19174;DHT22;9719;49.322;8.536;2023-05-29T22:13:50;20.80;79.40
19174;DHT22;9719;49.322;8.536;2023-05-29T22:18:52;20.80;80.00
19174;DHT22;9719;49.322;8.536;2023-05-29T22:23:54;20.70;80.30
19174;DHT22;9719;49.322;8.536;2023-05-29T22:28:57;20.60;80.80
19174;DHT22;9719;49.322;8.536;2023-05-29T22:33:59;20.50;81.40
19174;DHT22;9719;49.322;8.536;2023-05-29T22:39:01;20.40;81.80
19174;DHT22;9719;49.322;8.536;2023-05-29T22:44:05;20.30;82.40
19174;DHT22;9719;49.322;8.536;2023-05-29T22:49:07;20.30;83.00
19174;DHT22;9719;49.322;8.536;2023-05-29T22:54:12;20.20;83.50
19174;DHT22;9719;49.322;8.536;2023-05-29T22:59:15;20.10;83.90
19174;DHT22;9719;49.322;8.536;2023-05-29T23:04:18;20.00;84.60
19174;DHT22;9719;49.322;8.536;2023-05-29T23:09:19;19.90;85.30
19174;DHT22;9719;49.322;8.536;2023-05-29T23:14:23;19.80;85.80
19174;DHT22;9719;49.322;8.536;2023-05-29T23:19:25;19.80;86.30
19174;DHT22;9719;49.322;8.536;2023-05-29T23:24:26;19.70;86.70
19174;DHT22;9719;49.322;8.536;2023-05-29T23:29:30;19.50;87.30
19174;DHT22;9719;49.322;8.536;2023-05-29T23:34:31;19.50;88.00
19174;DHT22;9719;49.322;8.536;2023-05-29T23:39:33;19.40;88.30
19174;DHT22;9719;49.322;8.536;2023-05-29T23:44:36;19.40;89.10
19174;DHT22;9719;49.322;8.536;2023-05-29T23:49:38;19.40;89.30
19174;DHT22;9719;49.322;8.536;2023-05-29T23:54:40;19.30;89.90
19174;DHT22;9719;49.322;8.536;2023-05-29T23:59:43;19.20;90.10
